Stations météo

Publicité
Katesbridge, Grande-Bretagne (99014): Température de l'air & dewpoint: 04.08.2020 00:00:00 - 10.08.2020 00:00:00 (BST)Katesbridge, Grande-Bretagne (99014): Vitesse du vent & gusts: 04.08.2020 00:00:00 - 10.08.2020 00:00:00 (BST)Katesbridge, Grande-Bretagne (99014): Direction du vent: 04.08.2020 00:00:00 - 10.08.2020 00:00:00 (BST)Katesbridge, Grande-Bretagne (99014): Ensoleillement: 04.08.2020 00:00:00 - 10.08.2020 00:00:00 (BST)Katesbridge, Grande-Bretagne (99014): Quantités de précipitations: 04.08.2020 00:00:00 - 10.08.2020 00:00:00 (BST)
Date & Time tt [°C] td [°C] ff [km/h] ff [knt] fx [km/h] fx [knt] dd sd [min] rr [mm]
10.08.2020 00:00:00 - - - - - - - - -
09.08.2020 23:00:00 13,6 12,9 0 0 - - N 0 0,0
09.08.2020 22:00:00 13,2 11,6 2 1 - - E 0 0,0
09.08.2020 21:00:00 16,1 12,6 4 2 - - E 0 0,0
09.08.2020 20:00:00 17,8 13,9 4 2 - - SSE 18 0,0
09.08.2020 19:00:00 18,7 13,3 8 4 - - ESE 36 0,0
09.08.2020 18:00:00 20,0 13,0 9 5 - - E 48 0,0
09.08.2020 17:00:00 19,2 13,2 11 6 - - E 36 0,0
09.08.2020 16:00:00 19,8 14,1 13 7 - - SE 30 0,0
09.08.2020 15:00:00 18,6 13,9 11 6 - - SE 30 0,0
09.08.2020 14:00:00 19,0 14,1 15 8 - - SE 36 0,0
09.08.2020 13:00:00 17,9 13,4 11 6 - - E 6 0,0
09.08.2020 12:00:00 17,4 13,5 13 7 - - E 24 0,0
09.08.2020 11:00:00 16,4 12,3 11 6 - - ESE 30 0,0
09.08.2020 10:00:00 15,2 11,7 13 7 - - ESE 42 0,0
09.08.2020 09:00:00 14,9 11,5 13 7 - - ESE 48 0,0
09.08.2020 08:00:00 13,2 11,4 5 3 - - ESE 36 0,0
09.08.2020 07:00:00 9,4 9,4 4 2 - - SE 6 0,0
09.08.2020 06:00:00 7,7 7,6 2 1 - - S 0 0,0
09.08.2020 05:00:00 9,3 9,3 2 1 - - SSE 0 0,0
09.08.2020 04:00:00 8,3 8,0 2 1 - - WNW 0 0,0
09.08.2020 03:00:00 9,8 9,8 2 1 - - NW 0 0,0
09.08.2020 02:00:00 10,1 9,9 2 1 - - S 0 0,0
09.08.2020 01:00:00 9,5 8,7 2 1 - - NNE - 0,0
09.08.2020 00:00:00 9,3 8,4 2 1 - - NE 0 0,0
08.08.2020 23:00:00 9,7 7,7 2 1 - - SSW 0 0,0
08.08.2020 22:00:00 12,9 9,2 4 2 - - SE 0 0,0
08.08.2020 21:00:00 15,2 9,8 8 4 - - NE 18 0,0
08.08.2020 20:00:00 17,9 10,2 11 6 - - NE 60 0,0
08.08.2020 19:00:00 19,7 10,4 8 4 - - NE 60 0,0
08.08.2020 18:00:00 20,4 10,4 9 5 - - ENE 60 0,0
08.08.2020 17:00:00 20,4 9,1 11 6 - - NE 60 0,0
08.08.2020 16:00:00 20,7 11,5 9 5 - - NE 54 0,0
08.08.2020 15:00:00 20,6 13,1 8 4 - - ENE 48 0,0
08.08.2020 14:00:00 20,1 13,8 9 5 - - NNE 30 0,0
08.08.2020 13:00:00 18,4 12,1 5 3 - - N 30 0,0
08.08.2020 12:00:00 18,8 12,9 4 2 - - S 48 0,0
08.08.2020 11:00:00 16,6 14,1 4 2 - - W 54 0,0
08.08.2020 10:00:00 14,6 14,6 4 2 - - WNW 60 0,0
08.08.2020 09:00:00 12,0 11,9 0 0 - - N 30 0,0
08.08.2020 08:00:00 9,9 9,9 2 1 - - S 0 0,0
08.08.2020 07:00:00 7,4 7,4 2 1 - - SE 0 0,0
08.08.2020 06:00:00 5,7 5,7 0 0 - - N 0 0,2
08.08.2020 05:00:00 5,7 5,6 2 1 - - NNE 0 0,0
08.08.2020 04:00:00 6,4 6,4 2 1 - - SSE 0 0,0
08.08.2020 03:00:00 6,4 6,3 2 1 - - E 0 0,0
08.08.2020 02:00:00 7,0 6,7 0 0 - - N 0 0,0
08.08.2020 01:00:00 8,9 8,8 2 1 - - ESE - 0,0
08.08.2020 00:00:00 11,2 11,2 4 2 - - ENE 0 0,0
07.08.2020 23:00:00 9,7 9,1 2 1 - - ENE 0 0,0
07.08.2020 22:00:00 11,0 9,3 0 0 - - N 0 0,0
07.08.2020 21:00:00 14,8 10,9 2 1 - - NW 24 0,0
07.08.2020 20:00:00 18,4 11,9 2 1 - - NNW 36 0,0
07.08.2020 19:00:00 18,2 13,7 4 2 - - NW 0 0,0
07.08.2020 18:00:00 18,5 15,6 8 4 - - NW 0 0,0
07.08.2020 17:00:00 18,7 16,8 4 2 - - NNW 0 0,0
07.08.2020 16:00:00 18,8 17,7 4 2 - - WSW 0 0,4
07.08.2020 15:00:00 20,5 16,9 13 7 - - S 6 0,0
07.08.2020 14:00:00 20,1 17,4 16 9 - - SSW 18 0,0
07.08.2020 13:00:00 20,9 16,9 16 9 - - S 30 0,0
07.08.2020 12:00:00 19,3 16,2 18 10 - - S 18 0,0
07.08.2020 11:00:00 17,3 15,9 8 4 - - S 0 0,2
07.08.2020 10:00:00 15,9 15,0 8 4 - - SE 0 0,2
07.08.2020 09:00:00 15,3 14,3 9 5 - - ESE 0 0,2
07.08.2020 08:00:00 16,0 13,6 9 5 - - S 30 0,0
07.08.2020 07:00:00 15,8 13,4 9 5 - - SSE 18 0,0
07.08.2020 06:00:00 15,4 12,9 9 5 - - SSE 0 0,0
07.08.2020 05:00:00 15,8 13,2 9 5 - - S 0 0,0
07.08.2020 04:00:00 16,8 13,7 15 8 - - S 0 0,0
07.08.2020 03:00:00 16,2 14,0 8 4 - - S 0 0,0
07.08.2020 02:00:00 16,2 14,6 9 5 - - S 0 0,0
07.08.2020 01:00:00 16,3 14,5 13 7 - - SSW - 0,0
07.08.2020 00:00:00 16,4 14,7 11 6 - - S 0 0,0
06.08.2020 23:00:00 16,2 14,8 8 4 - - SSE 0 0,0
06.08.2020 22:00:00 16,3 14,8 11 6 - - S 0 0,0
06.08.2020 21:00:00 17,1 14,7 11 6 - - S 12 0,0
06.08.2020 20:00:00 17,6 14,9 13 7 - - S 18 0,0
06.08.2020 19:00:00 17,1 14,6 13 7 - - S 0 0,0
06.08.2020 18:00:00 17,8 14,8 13 7 - - S 42 0,0
06.08.2020 17:00:00 18,1 15,4 13 7 - - SSE 18 0,0
06.08.2020 16:00:00 17,4 14,4 16 9 - - S 42 0,0
06.08.2020 15:00:00 17,9 14,4 21 11 - - S 6 0,0
06.08.2020 14:00:00 17,6 14,1 22 12 - - S 18 0,0
06.08.2020 13:00:00 17,9 14,1 22 12 - - S 12 0,0
06.08.2020 12:00:00 18,0 14,4 16 9 - - SSE 24 0,0
06.08.2020 11:00:00 18,3 14,9 13 7 - - SSE 6 0,0
06.08.2020 10:00:00 18,1 14,1 15 8 - - S 54 0,0
06.08.2020 09:00:00 17,7 15,6 9 5 - - S 60 0,0
06.08.2020 08:00:00 14,5 14,5 4 2 - - S 36 0,0
06.08.2020 07:00:00 11,2 11,2 2 1 - - SSW 0 0,0
06.08.2020 06:00:00 8,4 8,3 2 1 - - SSE 0 0,0
06.08.2020 05:00:00 9,1 9,0 0 0 - - N 0 0,0
06.08.2020 04:00:00 9,9 9,4 2 1 - - NE 0 0,0
06.08.2020 03:00:00 11,4 10,9 2 1 - - NE 0 0,0
06.08.2020 02:00:00 14,0 13,5 2 1 - - SSW 0 0,0
06.08.2020 01:00:00 14,7 14,0 2 1 - - SSW - 0,0
06.08.2020 00:00:00 15,1 13,7 2 1 - - N 0 0,0
05.08.2020 23:00:00 15,6 13,6 4 2 - - N 0 0,0
05.08.2020 22:00:00 15,5 15,1 4 2 - - ENE 0 0,0
05.08.2020 21:00:00 15,9 14,5 2 1 - - E 18 0,0
05.08.2020 20:00:00 17,7 13,7 5 3 - - NW 48 0,0
05.08.2020 19:00:00 17,5 15,3 4 2 - - NW 6 0,0
05.08.2020 18:00:00 16,9 15,3 9 5 - - NW 6 0,2
05.08.2020 17:00:00 17,4 16,5 5 3 - - NW 0 1,2
05.08.2020 16:00:00 17,6 17,0 5 3 - - W 0 0,8
05.08.2020 15:00:00 17,8 16,2 13 7 - - S 0 0,0
05.08.2020 14:00:00 18,5 17,4 16 9 - - SSW 0 0,2
05.08.2020 13:00:00 17,9 17,5 13 7 - - SSW 0 2,4
05.08.2020 12:00:00 18,2 17,7 9 5 - - SSW 0 1,0
05.08.2020 11:00:00 17,1 17,0 8 4 - - SE 0 0,8
05.08.2020 10:00:00 16,4 16,2 8 4 - - SE 0 1,0
05.08.2020 09:00:00 16,0 15,9 5 3 - - SSE 0 0,2
05.08.2020 08:00:00 15,4 15,3 2 1 - - SSE 0 0,2
05.08.2020 07:00:00 15,0 14,7 5 3 - - W 0 0,0
05.08.2020 06:00:00 15,3 15,3 4 2 - - W 0 0,6
05.08.2020 05:00:00 15,3 15,2 4 2 - - WSW 0 0,4
05.08.2020 04:00:00 15,3 14,9 9 5 - - W 0 0,0
05.08.2020 03:00:00 16,3 15,2 8 4 - - W 0 0,0
05.08.2020 02:00:00 16,5 15,9 11 6 - - WSW 0 0,0
05.08.2020 01:00:00 16,4 15,3 13 7 - - W - 0,2
05.08.2020 00:00:00 16,8 16,2 15 8 - - WSW 0 0,0
04.08.2020 23:00:00 16,6 16,3 15 8 - - SW 0 0,2
04.08.2020 22:00:00 16,9 16,3 21 11 - - SW 0 0,2
04.08.2020 21:00:00 17,2 16,5 18 10 - - SW 0 0,2
04.08.2020 20:00:00 18,4 15,7 21 11 - - WSW 0 0,0
04.08.2020 19:00:00 20,2 14,8 21 11 - - WSW 0 0,0
04.08.2020 18:00:00 20,7 14,9 22 12 - - SW 0 0,0
04.08.2020 17:00:00 20,7 14,8 22 12 52 28 WSW 0 0,0
04.08.2020 16:00:00 21,8 15,7 21 11 - - WSW 0 0,0
04.08.2020 15:00:00 20,3 16,0 13 7 - - SW 0 0,0
04.08.2020 14:00:00 19,3 16,1 16 9 - - SW 0 0,0
04.08.2020 13:00:00 18,0 15,4 21 11 - - SW 0 0,0
04.08.2020 12:00:00 17,2 15,4 22 12 - - SW 0 0,0
04.08.2020 11:00:00 15,8 14,7 22 12 - - SW 0 0,0
04.08.2020 10:00:00 14,6 13,9 16 9 - - SSW 0 0,0
04.08.2020 09:00:00 13,6 12,7 16 9 - - SSW 0 0,0
04.08.2020 08:00:00 12,4 11,7 16 9 - - SSW 0 0,4
04.08.2020 07:00:00 11,5 10,8 18 10 - - SSW 0 2,0
04.08.2020 06:00:00 11,2 10,5 18 10 - - SSW 0 2,8
04.08.2020 05:00:00 10,9 10,3 9 5 - - SSE 0 2,0
04.08.2020 04:00:00 10,9 10,2 5 3 - - SSE 0 1,4
04.08.2020 03:00:00 11,4 9,9 5 3 - - SSW 0 0,4
04.08.2020 02:00:00 10,7 10,6 4 2 - - SSW 0 0,0
04.08.2020 01:00:00 9,9 9,8 2 1 - - ESE - 0,0
04.08.2020 00:00:00 9,5 9,3 2 1 - - ESE 0 0,0

tt = Température de l'air
td = dewpoint
ff = Vitesse du vent
fx = gusts
dd = Direction du vent
sd = Ensoleillement
rr = Quantités de précipitations

stations d'obs. à proximité